Time;durP1;ratioP1;P1;durP2;ratioP2;P2;SDS_P1;SDS_P2;PMS_P1;PMS_P2;Temp;Humidity;BMP_temperature;BMP_pressure;BME280_temperature;BME280_humidity;BME280_pressure;Samples;Min_cycle;Max_cycle;Signal;HPM_P1;HPM_P2
2022/01/07 00:02:18;;;;;;;18.30;7.37;;;;;;;3.08;100.00;101290.84;4959521;28;20190;-72
2022/01/07 00:04:44;;;;;;;19.33;7.50;;;;;;;3.06;100.00;101295.44;4963987;28;20197;-74
2022/01/07 00:07:09;;;;;;;17.40;7.00;;;;;;;2.58;100.00;101200.88;4966477;28;20186;-72
2022/01/07 00:09:36;;;;;;;14.77;6.73;;;;;;;3.04;100.00;101285.94;4960527;28;20241;-74
2022/01/07 00:12:03;;;;;;;18.30;7.83;;;;;;;1.64;100.00;101048.75;4959833;28;20897;-76
2022/01/07 00:14:29;;;;;;;13.20;6.20;;;;;;;3.18;100.00;101280.25;4961022;28;20480;-73
2022/01/07 00:16:54;;;;;;;18.50;6.57;;;;;;;2.69;100.00;101210.50;4962873;28;20803;-73
2022/01/07 00:19:20;;;;;;;18.00;8.10;;;;;;;2.48;100.00;101174.38;4963226;28;20568;-74
2022/01/07 00:21:46;;;;;;;24.67;7.17;;;;;;;2.74;100.00;101202.97;4959950;28;20228;-76
2022/01/07 00:24:11;;;;;;;16.40;7.30;;;;;;;3.00;100.00;101256.25;4959836;28;20446;-74
2022/01/07 00:26:37;;;;;;;16.47;6.70;;;;;;;2.77;100.00;101213.28;4961156;28;20225;-73
2022/01/07 00:29:03;;;;;;;20.40;7.67;;;;;;;3.01;100.00;101246.47;4966303;28;20196;-76
2022/01/07 00:31:28;;;;;;;16.70;6.73;;;;;;;2.82;100.00;101208.41;4962663;28;20196;-74
2022/01/07 00:33:53;;;;;;;19.43;8.00;;;;;;;2.47;100.00;101143.59;4962512;28;20440;-73
2022/01/07 00:36:19;;;;;;;16.17;6.57;;;;;;;1.55;100.00;100986.97;4964463;28;20201;-80
2022/01/07 00:38:45;;;;;;;14.80;6.77;;;;;;;2.60;100.00;101134.53;4966219;28;20200;-72
2022/01/07 00:41:13;;;;;;;13.60;6.10;;;;;;;2.88;100.00;101186.66;4957888;28;20444;-73
2022/01/07 00:43:38;;;;;;;14.53;6.13;;;;;;;2.48;100.00;101107.34;4963043;28;20185;-74
2022/01/07 00:46:04;;;;;;;14.27;5.97;;;;;;;3.13;100.00;101240.91;4962757;28;21203;-73
2022/01/07 00:48:29;;;;;;;13.43;5.93;;;;;;;2.55;100.00;101107.66;4965602;28;20189;-73
2022/01/07 00:50:54;;;;;;;20.33;5.70;;;;;;;3.10;100.00;101213.84;4959479;28;20683;-74
2022/01/07 00:53:20;;;;;;;15.40;5.97;;;;;;;2.63;100.00;101153.63;4963000;28;20205;-78
2022/01/07 00:55:46;;;;;;;12.00;5.77;;;;;;;3.28;100.00;101224.56;4964644;28;20241;-73
2022/01/07 00:58:11;;;;;;;16.77;6.47;;;;;;;3.16;100.00;101234.50;4965909;28;20198;-72
2022/01/07 01:00:37;;;;;;;16.83;6.03;;;;;;;3.14;100.00;101224.03;4957340;28;20460;-73
2022/01/07 01:03:02;;;;;;;17.47;6.67;;;;;;;3.09;100.00;101222.78;4964252;28;20189;-75
2022/01/07 01:05:28;;;;;;;20.70;8.10;;;;;;;3.09;100.00;101220.94;4964632;28;20213;-81
2022/01/07 01:07:54;;;;;;;13.20;5.60;;;;;;;1.79;100.00;101005.94;4963032;28;20197;-72
2022/01/07 01:10:24;;;;;;;12.00;6.27;;;;;;;2.39;100.00;101098.44;4964604;28;20465;-73
2022/01/07 01:12:49;;;;;;;13.40;5.97;;;;;;;3.09;100.00;101214.81;4956964;28;20304;-76
2022/01/07 01:15:22;;;;;;;18.27;5.97;;;;;;;2.64;100.00;101163.25;4964735;28;20472;-78
2022/01/07 01:17:49;;;;;;;16.20;5.67;;;;;;;2.99;100.00;101198.94;4964056;28;20642;-73
2022/01/07 01:20:15;;;;;;;12.03;5.30;;;;;;;3.02;100.00;101225.16;4959542;28;20456;-81
2022/01/07 01:22:41;;;;;;;14.30;5.87;;;;;;;2.81;100.00;101171.47;4962779;28;20877;-75
2022/01/07 01:25:07;;;;;;;13.70;5.13;;;;;;;2.09;100.00;101077.38;4968512;28;20206;-73
2022/01/07 01:27:33;;;;;;;7.87;5.30;;;;;;;2.05;100.00;101103.25;4969456;28;20716;-77
2022/01/07 01:30:00;;;;;;;10.33;5.50;;;;;;;2.61;100.00;101168.81;4963663;28;20433;-77
2022/01/07 01:32:26;;;;;;;17.50;6.97;;;;;;;2.28;100.00;101129.50;4946604;28;20437;-73
2022/01/07 01:34:51;;;;;;;19.83;5.77;;;;;;;1.85;100.00;101081.22;4960936;28;20530;-72
2022/01/07 01:37:17;;;;;;;14.00;5.43;;;;;;;1.94;100.00;101082.22;4947288;28;20186;-73
2022/01/07 01:39:42;;;;;;;13.03;6.17;;;;;;;1.17;100.00;100948.06;4966696;28;20187;-75
2022/01/07 01:42:08;;;;;;;11.60;5.87;;;;;;;2.41;100.00;101149.44;4967951;28;20255;-73
2022/01/07 01:44:33;;;;;;;10.40;5.63;;;;;;;2.43;100.00;101181.91;4958232;28;20875;-74
2022/01/07 01:46:59;;;;;;;15.60;5.47;;;;;;;2.37;100.00;101185.13;4967238;28;20274;-77
2022/01/07 01:49:24;;;;;;;15.67;5.80;;;;;;;1.91;100.00;101088.66;4964149;28;25157;-75
2022/01/07 01:51:50;;;;;;;10.57;5.73;;;;;;;2.58;100.00;101166.47;4969020;28;20296;-76
2022/01/07 01:54:15;;;;;;;17.90;6.40;;;;;;;2.33;100.00;101125.47;4950241;28;20218;-75
2022/01/07 01:56:41;;;;;;;10.73;5.57;;;;;;;1.99;100.00;101078.19;4963462;28;20210;-73
2022/01/07 01:59:09;;;;;;;11.73;5.97;;;;;;;2.44;100.00;101154.44;4965856;28;20296;-72
2022/01/07 02:01:35;;;;;;;13.83;5.00;;;;;;;2.45;100.00;101163.22;4964421;28;20456;-73
2022/01/07 02:04:00;;;;;;;12.87;5.47;;;;;;;1.52;100.00;101003.09;4963870;28;20880;-74
2022/01/07 02:06:26;;;;;;;14.20;5.77;;;;;;;1.82;100.00;101068.28;4961547;28;20971;-78
2022/01/07 02:08:52;;;;;;;16.50;6.27;;;;;;;2.11;100.00;101110.69;4957658;28;20201;-82
2022/01/07 02:11:17;;;;;;;11.13;5.67;;;;;;;2.45;100.00;101124.34;4965757;28;20682;-74
2022/01/07 02:13:45;;;;;;;14.93;5.17;;;;;;;2.30;100.00;101074.63;4964224;28;20204;-73
2022/01/07 02:16:10;;;;;;;15.07;5.87;;;;;;;1.98;100.00;101018.31;4963801;28;20205;-73
2022/01/07 02:18:36;;;;;;;10.73;5.37;;;;;;;2.34;100.00;101100.66;4968771;28;20446;-76
2022/01/07 02:21:01;;;;;;;9.83;5.30;;;;;;;2.38;100.00;101096.75;4969374;28;21041;-74
2022/01/07 02:23:27;;;;;;;11.33;5.43;;;;;;;2.14;100.00;101061.91;4963685;28;20281;-78
2022/01/07 02:25:55;;;;;;;17.40;5.90;;;;;;;2.18;100.00;101068.63;4964328;28;20272;-75
2022/01/07 02:28:21;;;;;;;11.23;5.37;;;;;;;1.18;100.00;100900.38;4968926;28;20186;-74
2022/01/07 02:30:46;;;;;;;11.93;5.43;;;;;;;2.36;100.00;101085.47;4968912;28;20750;-73
2022/01/07 02:33:11;;;;;;;11.03;5.40;;;;;;;2.03;100.00;101037.28;4966017;28;20197;-73
2022/01/07 02:35:38;;;;;;;10.20;4.83;;;;;;;2.04;100.00;101025.69;4966428;28;20248;-73
2022/01/07 02:38:03;;;;;;;9.60;5.40;;;;;;;1.31;100.00;100932.66;4969874;28;20647;-76
2022/01/07 02:40:29;;;;;;;11.80;5.53;;;;;;;1.73;100.00;100977.38;4964696;28;20455;-73
2022/01/07 02:42:56;;;;;;;10.43;5.33;;;;;;;2.22;100.00;101075.28;4961807;28;20256;-83
2022/01/07 02:45:22;;;;;;;13.50;6.00;;;;;;;1.87;100.00;101013.16;4967041;28;20226;-73
2022/01/07 02:47:54;;;;;;;15.90;6.53;;;;;;;2.27;100.00;101078.38;4968696;28;20948;-79
2022/01/07 02:50:23;;;;;;;15.93;6.60;;;;;;;2.18;100.00;101084.50;4961513;28;20213;-80
2022/01/07 02:52:50;;;;;;;13.10;6.30;;;;;;;1.89;100.00;101042.97;4968577;28;20527;-82
2022/01/07 02:55:17;;;;;;;10.17;5.53;;;;;;;2.27;100.00;101062.50;4965066;28;20477;-74
2022/01/07 02:57:43;;;;;;;14.20;5.70;;;;;;;2.19;100.00;101072.94;4965650;28;20452;-75
2022/01/07 03:00:11;;;;;;;9.13;6.13;;;;;;;2.13;100.00;101033.78;4966973;28;20456;-76
2022/01/07 03:02:36;;;;;;;14.47;6.47;;;;;;;2.01;100.00;101028.63;4965939;28;20194;-77
2022/01/07 03:05:03;;;;;;;10.17;6.73;;;;;;;1.63;100.00;100965.97;4947980;28;20472;-76
2022/01/07 03:07:29;;;;;;;16.73;6.67;;;;;;;1.75;100.00;100993.13;4966476;28;21009;-76
2022/01/07 03:09:54;;;;;;;12.17;6.70;;;;;;;2.04;100.00;101036.28;4960468;28;20491;-81
2022/01/07 03:12:20;;;;;;;11.97;7.07;;;;;;;2.38;100.00;101046.47;4965530;28;20817;-75
2022/01/07 03:14:48;;;;;;;16.03;7.23;;;;;;;1.98;100.00;101041.31;4968771;28;20520;-81
2022/01/07 03:17:13;;;;;;;11.50;6.30;;;;;;;0.98;100.00;100888.09;4947886;28;20189;-76
2022/01/07 03:19:39;;;;;;;12.73;6.40;;;;;;;1.06;100.00;100859.19;4962252;28;20448;-74
2022/01/07 03:22:04;;;;;;;16.23;7.80;;;;;;;1.06;100.00;100875.88;4945400;28;20229;-72
2022/01/07 03:24:30;;;;;;;10.70;6.40;;;;;;;2.16;100.00;101028.22;4965740;28;20202;-74
2022/01/07 03:26:55;;;;;;;12.00;7.00;;;;;;;1.96;100.00;101028.19;4960423;28;20704;-76
2022/01/07 03:29:20;;;;;;;15.80;6.93;;;;;;;1.22;100.00;100896.50;4967708;28;20197;-74
2022/01/07 03:31:47;;;;;;;12.10;5.87;;;;;;;1.94;100.00;101021.38;4966403;28;20194;-79
2022/01/07 03:34:12;;;;;;;12.40;6.57;;;;;;;1.07;100.00;100890.78;4968629;28;20242;-74
2022/01/07 03:36:37;;;;;;;13.97;7.53;;;;;;;2.08;100.00;101020.97;4966299;28;20468;-77
2022/01/07 03:39:03;;;;;;;9.83;6.70;;;;;;;1.67;100.00;100948.84;4964255;28;20194;-75
2022/01/07 03:41:29;;;;;;;13.13;6.67;;;;;;;2.15;100.00;101008.03;4966277;28;20198;-75
2022/01/07 03:43:55;;;;;;;11.27;6.63;;;;;;;1.99;100.00;100998.81;4951263;28;20369;-75
2022/01/07 03:46:20;;;;;;;12.53;6.97;;;;;;;1.92;100.00;100992.44;4963864;28;20214;-81
2022/01/07 03:48:46;;;;;;;16.40;7.93;;;;;;;1.67;100.00;100922.41;4965680;28;20449;-77
2022/01/07 03:51:11;;;;;;;16.50;7.43;;;;;;;1.37;100.00;100894.28;4966227;28;20268;-75
2022/01/07 03:53:36;;;;;;;9.13;6.03;;;;;;;1.99;100.00;100974.19;4967695;28;20293;-75
2022/01/07 03:56:03;;;;;;;11.13;6.10;;;;;;;1.99;100.00;100969.72;4967586;28;20752;-73
2022/01/07 03:58:28;;;;;;;10.67;6.60;;;;;;;1.82;100.00;100936.03;4968135;28;20193;-74
2022/01/07 04:00:53;;;;;;;14.93;6.70;;;;;;;1.72;100.00;100914.88;4966506;28;20454;-80
2022/01/07 04:03:19;;;;;;;12.67;7.23;;;;;;;1.21;100.00;100849.88;4966190;28;21800;-81
2022/01/07 04:05:46;;;;;;;7.23;5.80;;;;;;;1.70;100.00;100913.34;4966824;28;20201;-76
2022/01/07 04:08:12;;;;;;;9.93;7.10;;;;;;;2.06;100.00;100995.66;4965479;28;20273;-81
2022/01/07 04:10:38;;;;;;;10.27;6.77;;;;;;;2.04;100.00;100983.38;4966995;28;20490;-72
2022/01/07 04:13:04;;;;;;;9.70;6.97;;;;;;;1.93;100.00;100972.94;4967937;28;20449;-74
2022/01/07 04:15:31;;;;;;;11.40;7.53;;;;;;;1.72;100.00;100945.78;4965340;28;20481;-81
2022/01/07 04:17:56;;;;;;;8.13;6.67;;;;;;;2.06;100.00;100966.53;4962693;28;20480;-80
2022/01/07 04:20:28;;;;;;;10.97;7.27;;;;;;;1.26;100.00;100879.38;4963282;28;20540;-78
2022/01/07 04:22:57;;;;;;;12.63;7.47;;;;;;;1.98;100.00;100962.75;4948590;28;20189;-77
2022/01/07 04:25:23;;;;;;;8.30;6.33;;;;;;;1.99;100.00;100959.13;4967365;28;20471;-74
2022/01/07 04:27:50;;;;;;;12.47;7.60;;;;;;;1.19;100.00;100835.16;4964981;28;20445;-82
2022/01/07 04:30:17;;;;;;;9.63;7.40;;;;;;;2.05;100.00;100960.38;4964393;28;20284;-82
2022/01/07 04:32:43;;;;;;;9.00;7.73;;;;;;;1.98;100.00;100949.53;4961031;28;21195;-75
2022/01/07 04:35:09;;;;;;;10.87;7.23;;;;;;;1.66;100.00;100880.25;4966199;28;20481;-73
2022/01/07 04:37:35;;;;;;;12.13;7.07;;;;;;;1.97;100.00;100939.94;4968709;28;20186;-74
2022/01/07 04:40:01;;;;;;;9.43;7.13;;;;;;;1.27;100.00;100817.66;4965053;28;20508;-81
2022/01/07 04:42:26;;;;;;;12.00;7.87;;;;;;;1.97;100.00;100920.59;4966741;28;20237;-75
2022/01/07 04:44:52;;;;;;;9.63;6.97;;;;;;;0.19;100.00;100643.44;4966732;28;20469;-86
2022/01/07 04:47:17;;;;;;;11.70;7.73;;;;;;;2.25;100.00;100929.44;4963667;28;20193;-75
2022/01/07 04:49:42;;;;;;;11.37;7.87;;;;;;;1.96;100.00;100921.56;4962789;28;20190;-75
2022/01/07 04:52:08;;;;;;;10.93;7.30;;;;;;;1.77;100.00;100875.63;4961707;28;20596;-74
2022/01/07 04:54:33;;;;;;;11.03;7.73;;;;;;;1.76;100.00;100876.59;4965460;28;20214;-72
2022/01/07 04:56:59;;;;;;;9.37;7.63;;;;;;;1.61;100.00;100853.38;4965079;28;20435;-74
2022/01/07 04:59:25;;;;;;;12.20;8.00;;;;;;;2.10;100.00;100925.59;4966817;28;20201;-79
2022/01/07 05:01:51;;;;;;;10.27;7.77;;;;;;;2.02;100.00;100910.41;4968169;28;20192;-77
2022/01/07 05:04:16;;;;;;;10.07;7.70;;;;;;;1.74;100.00;100878.56;4965241;28;20440;-74
2022/01/07 05:06:45;;;;;;;9.50;7.60;;;;;;;1.92;100.00;100864.63;4968680;28;20879;-76
2022/01/07 05:09:19;;;;;;;9.07;7.93;;;;;;;2.12;100.00;100891.88;4961661;28;20190;-75
2022/01/07 05:11:50;;;;;;;8.83;7.17;;;;;;;2.18;100.00;100897.44;4964824;28;20443;-74
2022/01/07 05:14:16;;;;;;;12.47;7.10;;;;;;;1.28;100.00;100773.56;4964586;28;20882;-76
2022/01/07 05:16:42;;;;;;;11.60;7.23;;;;;;;2.16;100.00;100911.78;4964081;28;20501;-75
2022/01/07 05:19:09;;;;;;;7.90;7.10;;;;;;;2.18;100.00;100894.78;4963535;28;21193;-75
2022/01/07 05:21:35;;;;;;;9.67;7.13;;;;;;;2.08;100.00;100904.53;4953383;28;20194;-79
2022/01/07 05:24:00;;;;;;;8.53;7.67;;;;;;;1.47;100.00;100793.84;4963894;28;21240;-74
2022/01/07 05:26:26;;;;;;;10.97;6.73;;;;;;;1.93;100.00;100845.13;4967788;28;20630;-72
2022/01/07 05:28:52;;;;;;;8.40;6.67;;;;;;;2.34;100.00;100888.88;4965360;28;20285;-72
2022/01/07 05:31:19;;;;;;;7.47;6.20;;;;;;;1.88;100.00;100832.34;4965391;28;20433;-74
2022/01/07 05:33:45;;;;;;;12.43;7.20;;;;;;;2.17;100.00;100886.97;4968447;28;20281;-74
2022/01/07 05:36:10;;;;;;;12.70;7.20;;;;;;;1.55;100.00;100749.84;4963603;28;20855;-75
2022/01/07 05:38:36;;;;;;;7.97;7.17;;;;;;;1.54;100.00;100732.34;4967664;28;20647;-72
2022/01/07 05:41:01;;;;;;;9.13;6.90;;;;;;;0.32;100.00;100522.66;4965473;28;20198;-78
2022/01/07 05:43:28;;;;;;;10.27;6.90;;;;;;;1.95;100.00;100801.69;4958824;28;20205;-74
2022/01/07 05:45:54;;;;;;;8.87;6.97;;;;;;;1.48;100.00;100719.69;4964899;28;20219;-72
2022/01/07 05:48:19;;;;;;;12.23;7.27;;;;;;;1.99;100.00;100816.28;4967195;28;20455;-76
2022/01/07 05:50:44;;;;;;;9.97;6.60;;;;;;;2.30;100.00;100847.81;4951353;28;20201;-80
2022/01/07 05:53:10;;;;;;;13.33;6.87;;;;;;;2.43;100.00;100858.91;4965449;28;20225;-76
2022/01/07 05:55:35;;;;;;;9.13;7.40;;;;;;;2.38;100.00;100844.44;4968381;28;20725;-75
2022/01/07 05:58:01;;;;;;;9.30;7.63;;;;;;;1.78;100.00;100770.69;4967282;28;20312;-78
2022/01/07 06:00:26;;;;;;;9.23;6.23;;;;;;;1.70;100.00;100712.38;4970386;28;20556;-73
2022/01/07 06:02:52;;;;;;;7.50;6.80;;;;;;;2.51;100.00;100862.63;4960647;28;20209;-77
2022/01/07 06:05:17;;;;;;;8.27;6.60;;;;;;;2.24;100.00;100819.28;4963662;28;20202;-73
2022/01/07 06:07:42;;;;;;;8.10;6.47;;;;;;;2.13;100.00;100798.28;4968839;28;20606;-76
2022/01/07 06:10:08;;;;;;;8.93;6.70;;;;;;;0.78;100.00;100600.25;4967238;28;20400;-73
2022/01/07 06:12:34;;;;;;;8.13;5.70;;;;;;;2.43;100.00;100861.56;4970411;28;20200;-80
2022/01/07 06:14:59;;;;;;;8.43;6.53;;;;;;;2.37;100.00;100833.03;4964789;28;20477;-72
2022/01/07 06:17:25;;;;;;;9.40;6.50;;;;;;;2.53;100.00;100855.38;4921826;28;20300;-72
2022/01/07 06:19:51;;;;;;;9.43;6.03;;;;;;;2.58;100.00;100859.25;4955806;28;20753;-73
2022/01/07 06:22:18;;;;;;;7.37;5.57;;;;;;;1.86;100.00;100727.66;4969495;28;20542;-73
2022/01/07 06:24:43;;;;;;;7.43;5.87;;;;;;;2.36;100.00;100818.09;4963117;28;20202;-72
2022/01/07 06:27:09;;;;;;;8.67;6.73;;;;;;;2.33;100.00;100821.03;4969205;28;20930;-73
2022/01/07 06:29:35;;;;;;;9.27;6.20;;;;;;;2.29;100.00;100795.84;4961230;28;20629;-72
2022/01/07 06:32:00;;;;;;;6.30;5.73;;;;;;;2.34;100.00;100785.63;4965909;28;20566;-73
2022/01/07 06:34:26;;;;;;;8.63;5.87;;;;;;;0.63;100.00;100551.50;4973411;28;20345;-76
2022/01/07 06:36:51;;;;;;;9.80;6.57;;;;;;;1.94;100.00;100738.31;4956887;28;20210;-73
2022/01/07 06:39:22;;;;;;;6.67;5.77;;;;;;;2.68;100.00;100854.75;4961979;28;20531;-73
2022/01/07 06:41:48;;;;;;;6.97;5.80;;;;;;;2.45;100.00;100814.56;4968556;28;20186;-73
2022/01/07 06:44:14;;;;;;;8.10;6.23;;;;;;;2.42;100.00;100808.75;4970396;28;20442;-73
2022/01/07 06:46:39;;;;;;;10.93;6.30;;;;;;;2.33;100.00;100799.88;4956753;28;20503;-73
2022/01/07 06:49:05;;;;;;;9.63;6.93;;;;;;;2.11;100.00;100776.41;4952854;28;20186;-72
2022/01/07 06:51:31;;;;;;;15.20;6.47;;;;;;;2.40;100.00;100798.31;4960135;28;20281;-74
2022/01/07 06:53:57;;;;;;;7.67;6.23;;;;;;;2.43;100.00;100797.16;4969170;28;20186;-74
2022/01/07 06:56:25;;;;;;;8.40;5.93;;;;;;;1.56;100.00;100659.00;4967914;28;20465;-73
2022/01/07 06:58:53;;;;;;;10.20;6.00;;;;;;;1.90;100.00;100684.88;4967997;28;20464;-73
2022/01/07 07:01:22;;;;;;;8.93;5.77;;;;;;;1.16;100.00;100581.78;4951994;28;20437;-73
2022/01/07 07:03:47;;;;;;;12.80;5.90;;;;;;;2.68;100.00;100838.03;4965806;28;20566;-74
2022/01/07 07:06:13;;;;;;;8.87;5.87;;;;;;;2.79;100.00;100842.28;4967390;28;20460;-74
2022/01/07 07:08:38;;;;;;;9.53;6.00;;;;;;;0.69;100.00;100519.25;4972585;28;20360;-72
2022/01/07 07:11:04;;;;;;;9.57;6.00;;;;;;;2.22;100.00;100765.66;4969269;28;20314;-76
2022/01/07 07:13:30;;;;;;;7.47;5.97;;;;;;;2.56;100.00;100810.06;4968564;28;20240;-73
2022/01/07 07:15:55;;;;;;;7.43;6.67;;;;;;;2.65;100.00;100825.06;4970648;28;20678;-72
2022/01/07 07:18:21;;;;;;;8.00;6.10;;;;;;;2.29;100.00;100750.88;4970246;28;20547;-74
2022/01/07 07:20:46;;;;;;;12.63;6.10;;;;;;;2.28;100.00;100748.34;4975783;28;20198;-73
2022/01/07 07:23:11;;;;;;;9.53;5.93;;;;;;;2.93;100.00;100834.66;4966253;28;20213;-73
2022/01/07 07:25:37;;;;;;;6.87;5.57;;;;;;;2.90;100.00;100834.97;4972381;28;20201;-73
2022/01/07 07:28:03;;;;;;;6.00;5.43;;;;;;;2.59;100.00;100805.31;4937111;28;20291;-71
2022/01/07 07:30:35;;;;;;;7.37;6.37;;;;;;;2.94;100.00;100844.28;4945474;28;21019;-71
2022/01/07 07:33:27;;;;;;;8.50;6.23;;;;;;;2.56;100.00;100792.38;4975098;28;20573;-72
2022/01/07 07:38:11;;;;;;;7.47;5.60;;;;;;;2.86;100.00;100848.66;4959534;28;20455;-71
2022/01/07 07:40:37;;;;;;;7.50;5.40;;;;;;;2.88;100.00;100862.59;4963223;28;20383;-72
2022/01/07 07:43:02;;;;;;;6.23;5.63;;;;;;;2.21;100.00;100756.88;4969967;28;20248;-73
2022/01/07 07:45:31;;;;;;;7.77;7.00;;;;;;;2.29;100.00;100748.22;4970039;28;20303;-73
2022/01/07 07:47:56;;;;;;;6.73;5.87;;;;;;;3.03;100.00;100850.50;4967816;28;20193;-74
2022/01/07 07:50:22;;;;;;;7.70;5.90;;;;;;;3.10;100.00;100851.59;4954073;28;21737;-70
2022/01/07 07:52:47;;;;;;;7.90;6.13;;;;;;;2.88;100.00;100842.22;4962503;28;20201;-72
2022/01/07 07:55:13;;;;;;;9.40;6.20;;;;;;;3.01;100.00;100854.28;4952410;28;20600;-73
2022/01/07 07:57:38;;;;;;;7.43;6.27;;;;;;;2.00;100.00;100708.66;4965056;28;20197;-71
2022/01/07 08:00:05;;;;;;;7.73;5.80;;;;;;;2.05;100.00;100709.03;4945269;28;20240;-73
2022/01/07 08:02:31;;;;;;;6.87;5.50;;;;;;;2.90;100.00;100832.31;4950329;28;20196;-74
2022/01/07 08:04:57;;;;;;;11.37;6.10;;;;;;;2.80;100.00;100826.25;4962158;28;20469;-72
2022/01/07 08:07:23;;;;;;;8.00;5.83;;;;;;;1.86;100.00;100662.38;4967205;28;20279;-76
2022/01/07 08:09:50;;;;;;;8.23;6.30;;;;;;;2.49;100.00;100788.66;4967424;28;20457;-74
2022/01/07 08:12:19;;;;;;;7.50;5.50;;;;;;;3.02;100.00;100842.72;4931126;28;20190;-73
2022/01/07 08:17:29;;;;;;;8.97;6.47;;;;;;;2.87;100.00;100831.78;4960245;28;20432;-72
2022/01/07 08:19:55;;;;;;;9.93;6.10;;;;;;;3.10;100.00;100856.06;4964624;28;20450;-73
2022/01/07 08:22:20;;;;;;;7.67;6.30;;;;;;;2.94;100.00;100828.38;4968200;28;20194;-72
2022/01/07 08:24:46;;;;;;;8.03;6.20;;;;;;;1.52;100.00;100603.94;4969990;28;20196;-73
2022/01/07 08:27:11;;;;;;;6.77;5.60;;;;;;;2.84;100.00;100818.84;4961395;28;20194;-73
2022/01/07 08:29:39;;;;;;;8.80;6.70;;;;;;;2.69;100.00;100799.94;4961008;28;20193;-73
2022/01/07 08:34:57;;;;;;;12.03;7.00;;;;;;;2.82;100.00;100823.44;4968007;28;20850;-73
2022/01/07 08:37:28;;;;;;;9.13;5.50;;;;;;;2.93;100.00;100824.06;4967128;28;20958;-71
2022/01/07 08:39:55;;;;;;;7.10;5.77;;;;;;;3.13;100.00;100829.25;4966597;28;20452;-72
2022/01/07 08:42:23;;;;;;;9.37;7.07;;;;;;;3.12;100.00;100864.66;4959139;28;20499;-72
2022/01/07 08:44:51;;;;;;;7.17;6.37;;;;;;;3.19;100.00;100856.97;4964561;28;20538;-72
2022/01/07 08:47:17;;;;;;;11.80;7.57;;;;;;;3.21;100.00;100858.50;4971263;28;20444;-71
2022/01/07 08:49:42;;;;;;;11.60;7.40;;;;;;;2.92;100.00;100826.84;4968198;28;20452;-71
2022/01/07 08:52:08;;;;;;;10.53;6.67;;;;;;;2.48;100.00;100724.25;4963323;28;20690;-73
2022/01/07 08:54:33;;;;;;;10.27;6.80;;;;;;;3.35;100.00;100868.56;4969918;28;20577;-72
2022/01/07 08:56:59;;;;;;;14.90;8.13;;;;;;;3.14;100.00;100852.13;4973115;28;20683;-72
2022/01/07 08:59:24;;;;;;;7.00;6.40;;;;;;;3.30;100.00;100868.19;4944406;28;25832;-73
2022/01/07 09:01:50;;;;;;;9.77;6.90;;;;;;;2.97;100.00;100813.19;4970397;28;20194;-72
2022/01/07 09:04:15;;;;;;;10.10;6.90;;;;;;;3.33;100.00;100859.94;4952061;28;20198;-72
2022/01/07 09:06:41;;;;;;;11.33;7.73;;;;;;;3.03;100.00;100828.47;4936205;28;20214;-78
2022/01/07 09:09:06;;;;;;;8.70;7.60;;;;;;;3.06;100.00;100809.63;4947071;28;20662;-72
2022/01/07 09:11:32;;;;;;;10.13;7.20;;;;;;;3.49;100.00;100847.81;4946877;28;20280;-73
2022/01/07 09:13:58;;;;;;;9.50;7.80;;;;;;;2.58;100.00;100716.28;4960105;28;20208;-72
2022/01/07 09:16:25;;;;;;;17.23;8.40;;;;;;;3.43;100.00;100841.28;4970569;28;20721;-71
2022/01/07 09:18:51;;;;;;;12.60;6.80;;;;;;;3.55;100.00;100847.19;4969709;28;20452;-72
2022/01/07 09:21:17;;;;;;;11.17;8.40;;;;;;;3.59;100.00;100841.44;4974822;28;20467;-71
2022/01/07 09:23:43;;;;;;;12.33;8.60;;;;;;;3.56;100.00;100828.47;4968442;28;20189;-72
2022/01/07 09:26:12;;;;;;;10.77;8.93;;;;;;;3.56;100.00;100833.78;4962365;28;21069;-72
2022/01/07 09:28:37;;;;;;;13.07;8.83;;;;;;;3.21;100.00;100786.94;4968916;28;20193;-81
2022/01/07 09:31:03;;;;;;;13.03;8.33;;;;;;;3.68;100.00;100842.34;4961858;28;20528;-72
2022/01/07 09:33:29;;;;;;;17.03;8.77;;;;;;;3.65;100.00;100834.69;4950318;28;20737;-72
2022/01/07 09:35:54;;;;;;;11.33;9.10;;;;;;;3.77;100.00;100837.94;4965211;28;20237;-72
2022/01/07 09:38:21;;;;;;;13.63;10.00;;;;;;;3.02;100.00;100724.31;4970822;28;20832;-72
2022/01/07 09:40:49;;;;;;;12.27;10.17;;;;;;;3.46;100.00;100798.56;4959960;28;20269;-72
2022/01/07 09:43:15;;;;;;;12.20;9.57;;;;;;;3.43;100.00;100792.72;4967337;28;20842;-72
2022/01/07 09:45:41;;;;;;;11.70;9.13;;;;;;;3.05;100.00;100716.03;4962083;28;20460;-72
2022/01/07 09:48:08;;;;;;;17.10;10.40;;;;;;;3.69;100.00;100808.69;4957047;28;20200;-72
2022/01/07 09:50:34;;;;;;;14.87;10.20;;;;;;;3.88;100.00;100850.94;4950596;28;20193;-72
2022/01/07 09:53:08;;;;;;;11.60;8.60;;;;;;;3.93;100.00;100830.06;4969839;28;20880;-72
2022/01/07 09:55:34;;;;;;;12.33;10.00;;;;;;;3.56;100.00;100809.91;4969798;28;20612;-72
2022/01/07 09:58:01;;;;;;;15.83;11.00;;;;;;;3.79;100.00;100850.06;4972584;28;20966;-76
2022/01/07 10:00:47;;;;;;;14.50;10.00;;;;;;;3.85;100.00;100851.25;4952413;28;20476;-72
2022/01/07 10:03:17;;;;;;;14.63;11.03;;;;;;;3.35;100.00;100765.16;4968669;28;20465;-74
2022/01/07 10:05:52;;;;;;;13.27;11.60;;;;;;;3.56;100.00;100778.09;4969079;28;22676;-72
2022/01/07 10:08:19;;;;;;;16.37;10.63;;;;;;;4.01;100.00;100837.25;4952763;28;20852;-73
2022/01/07 10:10:45;;;;;;;14.73;10.17;;;;;;;3.87;100.00;100804.16;4967894;28;20455;-72
2022/01/07 10:13:13;;;;;;;14.97;12.17;;;;;;;4.01;100.00;100838.09;4971165;28;20864;-73
2022/01/07 10:15:40;;;;;;;17.13;11.13;;;;;;;3.83;100.00;100800.97;4941011;28;20847;-72
2022/01/07 10:18:10;;;;;;;15.87;11.03;;;;;;;3.94;100.00;100828.25;4970081;28;20545;-72
2022/01/07 10:20:38;;;;;;;17.40;11.20;;;;;;;3.53;100.00;100737.75;4972200;28;20479;-72
2022/01/07 10:23:14;;;;;;;33.43;12.00;;;;;;;3.62;100.00;100761.56;4972294;28;20437;-72
2022/01/07 10:25:42;;;;;;;18.10;9.93;;;;;;;3.73;100.00;100787.00;4972213;28;20544;-72
2022/01/07 10:28:11;;;;;;;21.17;11.20;;;;;;;3.89;100.00;100806.66;4968299;28;20507;-72
2022/01/07 10:30:44;;;;;;;17.90;12.80;;;;;;;3.85;100.00;100801.66;4973665;28;20575;-73
2022/01/07 10:33:35;;;;;;;19.53;12.97;;;;;;;4.20;100.00;100823.78;4975689;28;20437;-73
2022/01/07 10:36:06;;;;;;;16.27;11.97;;;;;;;4.13;100.00;100814.75;4966730;28;20472;-72
2022/01/07 10:38:34;;;;;;;21.03;13.03;;;;;;;4.09;100.00;100824.03;4967467;28;21032;-77
2022/01/07 10:41:00;;;;;;;19.23;12.63;;;;;;;4.14;100.00;100811.13;4977476;28;21277;-72
2022/01/07 10:43:34;;;;;;;25.70;13.03;;;;;;;3.94;100.00;100777.84;4976369;28;20969;-73
2022/01/07 10:46:12;;;;;;;17.70;12.53;;;;;;;3.83;100.00;100755.06;4975736;28;20535;-72
2022/01/07 10:48:53;;;;;;;19.37;12.23;;;;;;;4.23;100.00;100817.31;4956789;28;20502;-73
2022/01/07 10:51:23;;;;;;;21.40;11.63;;;;;;;4.40;100.00;100813.75;4971419;28;20436;-72
2022/01/07 10:54:00;;;;;;;22.60;11.33;;;;;;;4.23;100.00;100796.91;4978106;28;20432;-71
2022/01/07 10:56:31;;;;;;;15.70;11.77;;;;;;;4.34;100.00;100801.13;4976117;28;21002;-74
2022/01/07 10:59:08;;;;;;;19.67;10.93;;;;;;;4.24;100.00;100765.88;4978094;28;20519;-72
2022/01/07 11:01:39;;;;;;;17.43;10.10;;;;;;;3.97;100.00;100732.41;4972379;28;20440;-74
2022/01/07 11:04:13;;;;;;;14.20;8.73;;;;;;;4.19;100.00;100768.16;4977344;28;20443;-77
2022/01/07 11:06:39;;;;;;;10.17;6.60;;;;;;;3.59;100.00;100671.69;4977000;28;20464;-72
2022/01/07 11:09:09;;;;;;;7.63;6.80;;;;;;;4.14;100.00;100771.31;4974390;28;20461;-72
2022/01/07 11:11:40;;;;;;;7.37;4.67;;;;;;;4.33;100.00;100812.72;4966897;28;20936;-72
2022/01/07 11:14:07;;;;;;;7.53;3.67;;;;;;;4.25;100.00;100800.25;4971248;28;20441;-72
2022/01/07 11:16:37;;;;;;;5.43;3.70;;;;;;;4.04;100.00;100736.91;4967566;28;20981;-73
2022/01/07 11:19:04;;;;;;;4.53;3.30;;;;;;;4.44;100.00;100791.19;4974512;28;20449;-73
2022/01/07 11:21:30;;;;;;;4.67;3.70;;;;;;;4.66;100.00;100803.06;4964804;28;20444;-73
2022/01/07 11:23:55;;;;;;;6.20;3.87;;;;;;;4.19;100.00;100761.03;4970828;28;20445;-71
2022/01/07 11:26:20;;;;;;;4.77;3.90;;;;;;;4.54;100.00;100796.34;4957509;28;20518;-74